Needles, California
Current Conditions -  °F | °C
As of 10:56 AM on Friday 31 Oct 2014 (Local Time) from KEED Reporting Station
Clear Clear  
Wind Chill: 78°   Ceiling: Unl
Heat Index: 78°   Visibility: 10mi
Dew Point: 37°   Wind: 3mph
Humidity: 23%   Direction: 50°NE
Pressure: 29.89"   Gusts: NA
Location:  34.84°N, 114.6°W
Report Text: KEED 311756Z AUTO 05003KT 10SM CLR 26/03 A2989 RMK AO2 SLP095 T02560028 10256 20172 58002
Loading
Personal Weather Stations






























Interactive Weather Map New forecast layout! Learn more

10-Day Weather Forecast

Advertisements
Track Severe Weather on mobile